M/y Ohana — ZJL9370 — position and weather

sailwx.info

Track history (hours):
 
Tides and Currents Weather Stations Pressure Air Temp Water Temp Dewpoint Dewpoint Depression Visibility Wind Speed Wind Dir Waves Ship Positions

M/y Ohana

Last reported at 2017-Aug-23 15:24 UTC. Time now 2017-Sep-24 14:19 UTC.
Position N 26°06' W 080°10'.
Warning: this ship's position is 31 days out of date.

Length 18 m.

Type: Pleasure craft. MMSI: 338166822.

Date/timePositionNaut miles runAvg speedWind from/ knotsBaromVisibWave heightAir tempDewpointWater temp
2017-Aug-23 15:24N 26°06' W 080°10'0 0.0
2017-Aug-23 15:00N 26°06' W 080°10'0 0.0
2017-Aug-21 17:56N 26°06' W 080°10'0 0.0
2017-Aug-19 18:29N 26°05' W 080°10'0 0.0
2017-Aug-19 17:59N 26°05' W 080°10'1 2.3
2017-Aug-19 17:27N 26°06' W 080°10'1 2.9
2017-Aug-19 17:00N 26°07' W 080°08'2 3.1
2017-Aug-19 16:27N 26°07' W 080°06'0 0.0
2017-Aug-18 19:45N 26°07' W 080°06'0 0.0
2017-Aug-18 19:30N 26°07' W 080°06'0 0.0
2017-Aug-18 18:57N 26°07' W 080°06'0 0.0
2017-Aug-18 18:27N 26°07' W 080°06'0 0.0
2017-Aug-18 18:00N 26°07' W 080°06'0 0.0
2017-Aug-18 17:30N 26°07' W 080°06'0 0.0
2017-Aug-18 16:57N 26°07' W 080°06'0 0.0
2017-Aug-18 16:30N 26°07' W 080°06'0 0.0
2017-Aug-18 16:00N 26°07' W 080°06'1 2.7
2017-Aug-18 15:30N 26°06' W 080°07'4 7.9
2017-Aug-18 15:00N 26°05' W 080°03'2 3.9
2017-Aug-18 14:29N 26°06' W 080°04'2 0.2
2017-Aug-18 01:42N 26°07' W 080°06'0 0.0
2017-Aug-18 01:27N 26°07' W 080°06'0 0.0
2017-Aug-18 00:57N 26°07' W 080°06'0 0.0
2017-Aug-18 00:27N 26°07' W 080°06'0 0.0
2017-Aug-17 23:57N 26°07' W 080°06'0 0.0
2017-Aug-17 23:27N 26°07' W 080°06'0 0.0
2017-Aug-17 22:57N 26°07' W 080°06'0 0.0
2017-Aug-17 22:27N 26°07' W 080°06'1 1.6
2017-Aug-17 22:00N 26°07' W 080°07'510.6
2017-Aug-17 21:29N 26°04' W 080°02'917.2
2017-Aug-17 20:59N 26°01' W 079°53'917.4
2017-Aug-17 20:29N 25°58' W 079°44'  
Track history (hours):
 
Tides and Currents Weather Stations Pressure Air Temp Water Temp Dewpoint Dewpoint Depression Visibility Wind Speed Wind Dir Waves Ship Positions

M/y Ohana

Last reported at 2017-Aug-23 15:24 UTC. Time now 2017-Sep-24 14:19 UTC.
Position N 26°06' W 080°10'.
Warning: this ship's position is 31 days out of date.

Length 18 m.

Type: Pleasure craft. MMSI: 338166822.

Date/timePositionNaut miles runAvg speedWind from/ knotsBaromVisibWave heightAir tempDewpointWater temp
2017-Aug-23 15:24N 26°06' W 080°10'0 0.0
2017-Aug-23 15:00N 26°06' W 080°10'0 0.0
2017-Aug-21 17:56N 26°06' W 080°10'0 0.0
2017-Aug-19 18:29N 26°05' W 080°10'0 0.0
2017-Aug-19 17:59N 26°05' W 080°10'1 2.3
2017-Aug-19 17:27N 26°06' W 080°10'1 2.9
2017-Aug-19 17:00N 26°07' W 080°08'2 3.1
2017-Aug-19 16:27N 26°07' W 080°06'0 0.0
2017-Aug-18 19:45N 26°07' W 080°06'0 0.0
2017-Aug-18 19:30N 26°07' W 080°06'0 0.0
2017-Aug-18 18:57N 26°07' W 080°06'0 0.0
2017-Aug-18 18:27N 26°07' W 080°06'0 0.0
2017-Aug-18 18:00N 26°07' W 080°06'0 0.0
2017-Aug-18 17:30N 26°07' W 080°06'0 0.0
2017-Aug-18 16:57N 26°07' W 080°06'0 0.0
2017-Aug-18 16:30N 26°07' W 080°06'0 0.0
2017-Aug-18 16:00N 26°07' W 080°06'1 2.7
2017-Aug-18 15:30N 26°06' W 080°07'4 7.9
2017-Aug-18 15:00N 26°05' W 080°03'2 3.9
2017-Aug-18 14:29N 26°06' W 080°04'2 0.2
2017-Aug-18 01:42N 26°07' W 080°06'0 0.0
2017-Aug-18 01:27N 26°07' W 080°06'0 0.0
2017-Aug-18 00:57N 26°07' W 080°06'0 0.0
2017-Aug-18 00:27N 26°07' W 080°06'0 0.0
2017-Aug-17 23:57N 26°07' W 080°06'0 0.0
2017-Aug-17 23:27N 26°07' W 080°06'0 0.0
2017-Aug-17 22:57N 26°07' W 080°06'0 0.0
2017-Aug-17 22:27N 26°07' W 080°06'1 1.6
2017-Aug-17 22:00N 26°07' W 080°07'510.6
2017-Aug-17 21:29N 26°04' W 080°02'917.2
2017-Aug-17 20:59N 26°01' W 079°53'917.4
2017-Aug-17 20:29N 25°58' W 079°44'  

Dump ship's entire track history